SAS62N ENEV-ENAT
Flight info
| Callsign | SAS62N |
|---|---|
| Flight time | 0h 37m |
| Altitude | 29000 |
| Route | LAVNA DCT BADIX |
| Aircraft | A319/M-SDE3FGHIRWY/LB1 |
Departure
| Time | 2026-05-04 18:10 |
|---|---|
| Airport | Harstad/Narvik Airport (ENEV) |
Arrival
| Time | 2026-05-04 18:47 |
|---|---|
| Airport | Alta Airport (ENAT) |
| Time | Latitude | Longitude | Altitude | Speed | Heading |
|---|---|---|---|---|---|
| 2026-05-04 17:40 | 68.48834 | 16.68430 | 95 ft | 0 kts | 139° |
| 2026-05-04 18:02 | 68.48834 | 16.68431 | 93 ft | 2 kts | 139° |
| 2026-05-04 18:03 | 68.48788 | 16.68537 | 93 ft | 12 kts | 142° |
| 2026-05-04 18:03 | 68.48737 | 16.68423 | 93 ft | 15 kts | 266° |
| 2026-05-04 18:03 | 68.48791 | 16.68230 | 95 ft | 17 kts | 355° |
| 2026-05-04 18:03 | 68.48927 | 16.68206 | 95 ft | 21 kts | 356° |
| 2026-05-04 18:04 | 68.49019 | 16.68194 | 95 ft | 12 kts | 359° |
| 2026-05-04 18:04 | 68.49113 | 16.68188 | 93 ft | 16 kts | 358° |
| 2026-05-04 18:04 | 68.49385 | 16.68158 | 94 ft | 23 kts | 357° |
| 2026-05-04 18:05 | 68.49539 | 16.68144 | 93 ft | 22 kts | 358° |
| 2026-05-04 18:05 | 68.49697 | 16.68126 | 93 ft | 24 kts | 357° |
| 2026-05-04 18:05 | 68.49867 | 16.68098 | 94 ft | 25 kts | 356° |
| 2026-05-04 18:05 | 68.50035 | 16.68090 | 94 ft | 22 kts | 358° |
| 2026-05-04 18:06 | 68.50310 | 16.68049 | 95 ft | 19 kts | 358° |
| 2026-05-04 18:06 | 68.50379 | 16.67945 | 94 ft | 11 kts | 288° |
| 2026-05-04 18:06 | 68.50375 | 16.67750 | 96 ft | 7 kts | 248° |
| 2026-05-04 18:07 | 68.50334 | 16.67688 | 96 ft | 8 kts | 175° |
| 2026-05-04 18:07 | 68.50327 | 16.67691 | 97 ft | 0 kts | 174° |
| 2026-05-04 18:09 | 68.49910 | 16.67736 | 94 ft | 86 kts | 178° |
| 2026-05-04 18:09 | 68.48001 | 16.67967 | 364 ft | 165 kts | 179° |
| 2026-05-04 18:10 | 68.46854 | 16.68100 | 1085 ft | 165 kts | 178° |
| 2026-05-04 18:10 | 68.45667 | 16.68254 | 1619 ft | 181 kts | 179° |
| 2026-05-04 18:10 | 68.44340 | 16.68400 | 1929 ft | 201 kts | 178° |
| 2026-05-04 18:10 | 68.42954 | 16.69635 | 2219 ft | 229 kts | 142° |
| 2026-05-04 18:11 | 68.42068 | 16.73429 | 2658 ft | 254 kts | 102° |
| 2026-05-04 18:11 | 68.42040 | 16.78310 | 3443 ft | 263 kts | 82° |
| 2026-05-04 18:11 | 68.42371 | 16.83222 | 4381 ft | 267 kts | 76° |
| 2026-05-04 18:11 | 68.42790 | 16.88239 | 5317 ft | 270 kts | 76° |
| 2026-05-04 18:12 | 68.43200 | 16.93251 | 6223 ft | 273 kts | 73° |
| 2026-05-04 18:12 | 68.43931 | 16.97939 | 7060 ft | 275 kts | 58° |
| 2026-05-04 18:12 | 68.45075 | 17.02106 | 7916 ft | 276 kts | 45° |
| 2026-05-04 18:12 | 68.46562 | 17.05431 | 8790 ft | 278 kts | 32° |
| 2026-05-04 18:13 | 68.48180 | 17.08411 | 9637 ft | 281 kts | 33° |
| 2026-05-04 18:13 | 68.49854 | 17.11516 | 9985 ft | 303 kts | 33° |
| 2026-05-04 18:13 | 68.53558 | 17.18428 | 10760 ft | 335 kts | 33° |
| 2026-05-04 18:14 | 68.55495 | 17.22057 | 11491 ft | 339 kts | 34° |
| 2026-05-04 18:14 | 68.57456 | 17.25731 | 12240 ft | 342 kts | 34° |
| 2026-05-04 18:14 | 68.59432 | 17.29437 | 12996 ft | 345 kts | 34° |
| 2026-05-04 18:15 | 68.63381 | 17.37178 | 14285 ft | 354 kts | 44° |
| 2026-05-04 18:15 | 68.66408 | 17.47999 | 15519 ft | 361 kts | 55° |
| 2026-05-04 18:15 | 68.67880 | 17.53631 | 16137 ft | 365 kts | 55° |
| 2026-05-04 18:16 | 68.69370 | 17.59349 | 16777 ft | 369 kts | 55° |
| 2026-05-04 18:16 | 68.70869 | 17.65114 | 17437 ft | 372 kts | 55° |
| 2026-05-04 18:16 | 68.72379 | 17.70936 | 18022 ft | 376 kts | 56° |
| 2026-05-04 18:17 | 68.75453 | 17.82782 | 19131 ft | 383 kts | 56° |
| 2026-05-04 18:17 | 68.77007 | 17.88781 | 19701 ft | 387 kts | 56° |
| 2026-05-04 18:17 | 68.80149 | 18.01014 | 20838 ft | 394 kts | 56° |
| 2026-05-04 18:18 | 68.81545 | 18.06484 | 21268 ft | 397 kts | 57° |
| 2026-05-04 18:18 | 68.83125 | 18.12696 | 21749 ft | 401 kts | 57° |
| 2026-05-04 18:18 | 68.84736 | 18.19024 | 22249 ft | 404 kts | 57° |
| 2026-05-04 18:18 | 68.86363 | 18.25406 | 22770 ft | 408 kts | 57° |
| 2026-05-04 18:19 | 68.89653 | 18.38378 | 23634 ft | 414 kts | 57° |
| 2026-05-04 18:19 | 68.91303 | 18.44938 | 24020 ft | 417 kts | 57° |
| 2026-05-04 18:19 | 68.92970 | 18.51586 | 24400 ft | 420 kts | 57° |
| 2026-05-04 18:20 | 68.94649 | 18.58282 | 24783 ft | 424 kts | 57° |
| 2026-05-04 18:20 | 68.96336 | 18.65037 | 25155 ft | 427 kts | 57° |
| 2026-05-04 18:20 | 68.98038 | 18.71881 | 25523 ft | 431 kts | 57° |
| 2026-05-04 18:20 | 68.99744 | 18.78780 | 25890 ft | 434 kts | 57° |
| 2026-05-04 18:21 | 69.01456 | 18.85733 | 26237 ft | 437 kts | 57° |
| 2026-05-04 18:21 | 69.03181 | 18.92764 | 26589 ft | 441 kts | 57° |
| 2026-05-04 18:21 | 69.04921 | 18.99865 | 26933 ft | 444 kts | 57° |
| 2026-05-04 18:21 | 69.06672 | 19.07024 | 27276 ft | 447 kts | 57° |
| 2026-05-04 18:22 | 69.08431 | 19.14241 | 27598 ft | 450 kts | 57° |
| 2026-05-04 18:22 | 69.10197 | 19.21517 | 27922 ft | 453 kts | 57° |
| 2026-05-04 18:22 | 69.11973 | 19.28851 | 28231 ft | 456 kts | 56° |
| 2026-05-04 18:22 | 69.13755 | 19.36235 | 28476 ft | 459 kts | 56° |
| 2026-05-04 18:23 | 69.17278 | 19.50873 | 28523 ft | 448 kts | 57° |
| 2026-05-04 18:23 | 69.20725 | 19.65291 | 28524 ft | 446 kts | 57° |
| 2026-05-04 18:24 | 69.24168 | 19.79849 | 28532 ft | 446 kts | 57° |
| 2026-05-04 18:24 | 69.27593 | 19.94428 | 28528 ft | 446 kts | 57° |
| 2026-05-04 18:25 | 69.31004 | 20.09065 | 28173 ft | 446 kts | 57° |
| 2026-05-04 18:25 | 69.32705 | 20.16384 | 27896 ft | 445 kts | 57° |
| 2026-05-04 18:25 | 69.34405 | 20.23711 | 27612 ft | 444 kts | 57° |
| 2026-05-04 18:26 | 69.36085 | 20.30990 | 27102 ft | 440 kts | 58° |
| 2026-05-04 18:26 | 69.37753 | 20.38230 | 26530 ft | 436 kts | 58° |
| 2026-05-04 18:26 | 69.39381 | 20.45327 | 25974 ft | 432 kts | 58° |
| 2026-05-04 18:26 | 69.41026 | 20.52513 | 25450 ft | 428 kts | 58° |
| 2026-05-04 18:27 | 69.42624 | 20.59512 | 24866 ft | 425 kts | 58° |
| 2026-05-04 18:27 | 69.44224 | 20.66546 | 24318 ft | 421 kts | 59° |
| 2026-05-04 18:27 | 69.45806 | 20.73524 | 23787 ft | 417 kts | 59° |
| 2026-05-04 18:27 | 69.47368 | 20.80449 | 23259 ft | 413 kts | 59° |
| 2026-05-04 18:28 | 69.48908 | 20.87300 | 22690 ft | 409 kts | 59° |
| 2026-05-04 18:28 | 69.50431 | 20.94100 | 22218 ft | 403 kts | 59° |
| 2026-05-04 18:28 | 69.51929 | 21.00794 | 21741 ft | 398 kts | 59° |
| 2026-05-04 18:28 | 69.53408 | 21.07431 | 21281 ft | 393 kts | 59° |
| 2026-05-04 18:29 | 69.54370 | 21.11766 | 20984 ft | 390 kts | 59° |
| 2026-05-04 18:29 | 69.55810 | 21.18278 | 20692 ft | 382 kts | 59° |
| 2026-05-04 18:29 | 69.57206 | 21.24591 | 20551 ft | 369 kts | 59° |
| 2026-05-04 18:29 | 69.58551 | 21.30681 | 20413 ft | 357 kts | 60° |
| 2026-05-04 18:30 | 69.61145 | 21.42491 | 19782 ft | 346 kts | 59° |
| 2026-05-04 18:30 | 69.62419 | 21.48343 | 19381 ft | 344 kts | 60° |
| 2026-05-04 18:30 | 69.63679 | 21.54136 | 18996 ft | 342 kts | 60° |
| 2026-05-04 18:31 | 69.64937 | 21.59920 | 18599 ft | 340 kts | 60° |
| 2026-05-04 18:31 | 69.66183 | 21.65654 | 18218 ft | 337 kts | 60° |
| 2026-05-04 18:31 | 69.67419 | 21.71369 | 17838 ft | 335 kts | 60° |
| 2026-05-04 18:31 | 69.68644 | 21.77046 | 17427 ft | 333 kts | 60° |
| 2026-05-04 18:32 | 69.69858 | 21.82703 | 16999 ft | 331 kts | 60° |
| 2026-05-04 18:32 | 69.71048 | 21.88256 | 16597 ft | 329 kts | 60° |
| 2026-05-04 18:32 | 69.72245 | 21.93851 | 16194 ft | 327 kts | 60° |
| 2026-05-04 18:32 | 69.73427 | 21.99402 | 15782 ft | 324 kts | 60° |
| 2026-05-04 18:33 | 69.74602 | 22.04950 | 15392 ft | 322 kts | 60° |
| 2026-05-04 18:33 | 69.75767 | 22.10456 | 15011 ft | 321 kts | 60° |
| 2026-05-04 18:33 | 69.76929 | 22.15912 | 14527 ft | 317 kts | 58° |
| 2026-05-04 18:33 | 69.78335 | 22.20642 | 14288 ft | 303 kts | 42° |
| 2026-05-04 18:34 | 69.79994 | 22.24133 | 14029 ft | 290 kts | 29° |
| 2026-05-04 18:34 | 69.81831 | 22.26437 | 13563 ft | 286 kts | 19° |
| 2026-05-04 18:34 | 69.83697 | 22.28380 | 12996 ft | 284 kts | 19° |
| 2026-05-04 18:34 | 69.85544 | 22.30311 | 12410 ft | 281 kts | 19° |
| 2026-05-04 18:35 | 69.87377 | 22.32238 | 11832 ft | 279 kts | 20° |
| 2026-05-04 18:35 | 69.89195 | 22.34154 | 11274 ft | 277 kts | 20° |
| 2026-05-04 18:35 | 69.91005 | 22.35920 | 10797 ft | 272 kts | 12° |
| 2026-05-04 18:35 | 69.92888 | 22.36106 | 10669 ft | 272 kts | 346° |
| 2026-05-04 18:36 | 69.94632 | 22.34031 | 10604 ft | 271 kts | 330° |
| 2026-05-04 18:36 | 69.96278 | 22.31341 | 10489 ft | 270 kts | 328° |
| 2026-05-04 18:36 | 69.97885 | 22.28645 | 10310 ft | 261 kts | 328° |
| 2026-05-04 18:36 | 69.99432 | 22.26047 | 10153 ft | 252 kts | 328° |
| 2026-05-04 18:37 | 70.00928 | 22.23534 | 9898 ft | 247 kts | 328° |
| 2026-05-04 18:37 | 70.02421 | 22.21019 | 9489 ft | 249 kts | 328° |
| 2026-05-04 18:37 | 70.03929 | 22.18470 | 9050 ft | 251 kts | 328° |
| 2026-05-04 18:37 | 70.05454 | 22.15936 | 8606 ft | 254 kts | 332° |
| 2026-05-04 18:38 | 70.07177 | 22.14830 | 8160 ft | 257 kts | 3° |
| 2026-05-04 18:38 | 70.08867 | 22.16368 | 7729 ft | 256 kts | 34° |
| 2026-05-04 18:38 | 70.10093 | 22.19964 | 7325 ft | 252 kts | 55° |
| 2026-05-04 18:38 | 70.11097 | 22.24194 | 6907 ft | 252 kts | 58° |
| 2026-05-04 18:39 | 70.12075 | 22.28477 | 6491 ft | 252 kts | 59° |
| 2026-05-04 18:39 | 70.12709 | 22.33162 | 6071 ft | 246 kts | 86° |
| 2026-05-04 18:39 | 70.12699 | 22.38137 | 5646 ft | 243 kts | 100° |
| 2026-05-04 18:39 | 70.12318 | 22.42939 | 5256 ft | 239 kts | 109° |
| 2026-05-04 18:40 | 70.11793 | 22.47536 | 4974 ft | 233 kts | 111° |
| 2026-05-04 18:40 | 70.11274 | 22.51867 | 4973 ft | 216 kts | 111° |
| 2026-05-04 18:40 | 70.10784 | 22.55958 | 4985 ft | 210 kts | 111° |
| 2026-05-04 18:40 | 70.10302 | 22.59993 | 4988 ft | 208 kts | 111° |
| 2026-05-04 18:41 | 70.09823 | 22.64000 | 4987 ft | 208 kts | 111° |
| 2026-05-04 18:41 | 70.09343 | 22.68012 | 5000 ft | 208 kts | 111° |
| 2026-05-04 18:41 | 70.08861 | 22.72013 | 4994 ft | 208 kts | 111° |
| 2026-05-04 18:41 | 70.08383 | 22.76005 | 4991 ft | 206 kts | 111° |
| 2026-05-04 18:42 | 70.07934 | 22.79845 | 4960 ft | 191 kts | 110° |
| 2026-05-04 18:42 | 70.07532 | 22.83517 | 5001 ft | 188 kts | 110° |
| 2026-05-04 18:42 | 70.07113 | 22.87111 | 4956 ft | 185 kts | 112° |
| 2026-05-04 18:42 | 70.06652 | 22.90584 | 4870 ft | 185 kts | 114° |
| 2026-05-04 18:43 | 70.06163 | 22.93986 | 4705 ft | 178 kts | 116° |
| 2026-05-04 18:43 | 70.05653 | 22.97314 | 4435 ft | 176 kts | 116° |
| 2026-05-04 18:43 | 70.05120 | 23.00536 | 4008 ft | 181 kts | 118° |
| 2026-05-04 18:43 | 70.04495 | 23.03785 | 3547 ft | 185 kts | 122° |
| 2026-05-04 18:44 | 70.03789 | 23.06953 | 3037 ft | 186 kts | 122° |
| 2026-05-04 18:44 | 70.03329 | 23.09106 | 2687 ft | 183 kts | 120° |
| 2026-05-04 18:44 | 70.02517 | 23.13312 | 2144 ft | 175 kts | 117° |
| 2026-05-04 18:44 | 70.01934 | 23.16323 | 1853 ft | 167 kts | 120° |
| 2026-05-04 18:45 | 70.01323 | 23.19116 | 1616 ft | 158 kts | 121° |
| 2026-05-04 18:45 | 70.00777 | 23.21698 | 1437 ft | 142 kts | 119° |
| 2026-05-04 18:45 | 70.00300 | 23.24127 | 1181 ft | 134 kts | 117° |
| 2026-05-04 18:45 | 69.99831 | 23.26468 | 866 ft | 132 kts | 118° |
| 2026-05-04 18:46 | 69.99361 | 23.28741 | 654 ft | 131 kts | 119° |
| 2026-05-04 18:46 | 69.98882 | 23.31001 | 423 ft | 130 kts | 119° |
| 2026-05-04 18:46 | 69.98418 | 23.33246 | 196 ft | 129 kts | 119° |
| 2026-05-04 18:46 | 69.97960 | 23.35468 | 37 ft | 121 kts | 121° |
| 2026-05-04 18:47 | 69.97648 | 23.36990 | 35 ft | 52 kts | 122° |
| 2026-05-04 18:47 | 69.97481 | 23.37789 | 37 ft | 42 kts | 120° |
| 2026-05-04 18:47 | 69.97342 | 23.38468 | 35 ft | 27 kts | 121° |
| 2026-05-04 18:47 | 69.97267 | 23.38836 | 35 ft | 14 kts | 113° |
| 2026-05-04 18:48 | 69.97247 | 23.38901 | 36 ft | 2 kts | 251° |
| 2026-05-04 18:48 | 69.97268 | 23.38785 | 34 ft | 12 kts | 302° |
| 2026-05-04 18:48 | 69.97328 | 23.38504 | 34 ft | 22 kts | 302° |
| 2026-05-04 18:48 | 69.97407 | 23.38119 | 37 ft | 19 kts | 300° |
| 2026-05-04 18:49 | 69.97474 | 23.37783 | 37 ft | 20 kts | 300° |
| 2026-05-04 18:49 | 69.97553 | 23.37405 | 36 ft | 24 kts | 302° |
| 2026-05-04 18:49 | 69.97646 | 23.36970 | 34 ft | 25 kts | 301° |
| 2026-05-04 18:49 | 69.97714 | 23.36613 | 34 ft | 14 kts | 297° |
| 2026-05-04 18:50 | 69.97709 | 23.36409 | 35 ft | 12 kts | 236° |
| 2026-05-04 18:50 | 69.97671 | 23.36184 | 35 ft | 14 kts | 256° |
| 2026-05-04 18:50 | 69.97692 | 23.35893 | 33 ft | 16 kts | 300° |
| 2026-05-04 18:50 | 69.97751 | 23.35717 | 35 ft | 10 kts | 17° |
| 2026-05-04 18:51 | 69.97820 | 23.35837 | 33 ft | 13 kts | 30° |
| 2026-05-04 18:51 | 69.97894 | 23.35784 | 32 ft | 14 kts | 301° |
| 2026-05-04 18:51 | 69.97942 | 23.35539 | 36 ft | 12 kts | 298° |
| 2026-05-04 18:51 | 69.97920 | 23.35325 | 35 ft | 13 kts | 214° |
| 2026-05-04 18:52 | 69.97871 | 23.35143 | 35 ft | 7 kts | 250° |
| 2026-05-04 18:52 | 69.97871 | 23.34989 | 35 ft | 9 kts | 292° |
| 2026-05-04 18:52 | 69.97898 | 23.34832 | 35 ft | 7 kts | 266° |
| 2026-05-04 18:52 | 69.97858 | 23.34749 | 35 ft | 7 kts | 210° |
| 2026-05-04 18:53 | 69.97841 | 23.34718 | 33 ft | 3 kts | 212° |
| 2026-05-04 18:53 | 69.97836 | 23.34710 | 34 ft | 0 kts | 211° |